createdAt,value
2023-02-15T00:00:38.314Z,10.20
2023-02-15T00:03:04.669Z,11.20
2023-02-15T00:05:31.759Z,6.73
2023-02-15T00:07:58.061Z,6.13
2023-02-15T00:10:24.536Z,7.13
2023-02-15T00:12:50.831Z,6.00
2023-02-15T00:15:17.228Z,5.83
2023-02-15T00:17:43.539Z,4.67
2023-02-15T00:20:10.062Z,6.33
2023-02-15T00:22:36.408Z,6.37
2023-02-15T00:25:02.704Z,10.93
2023-02-15T00:27:29.001Z,5.67
2023-02-15T00:29:55.369Z,7.13
2023-02-15T00:32:21.702Z,8.13
2023-02-15T00:34:48.025Z,6.07
2023-02-15T00:37:14.416Z,7.37
2023-02-15T00:39:40.711Z,8.17
2023-02-15T00:42:07.008Z,6.63
2023-02-15T00:44:33.324Z,5.07
2023-02-15T00:46:59.627Z,6.13
2023-02-15T00:49:25.948Z,6.87
2023-02-15T00:51:52.255Z,4.70
2023-02-15T00:54:18.621Z,6.47
2023-02-15T00:56:44.927Z,5.37
2023-02-15T00:59:11.232Z,4.70
2023-02-15T01:01:37.574Z,4.13
2023-02-15T01:04:04.205Z,5.23
2023-02-15T01:06:30.570Z,5.33
2023-02-15T01:08:56.902Z,6.23
2023-02-15T01:11:23.757Z,4.33
2023-02-15T01:13:51.216Z,4.90
2023-02-15T01:16:17.771Z,4.57
2023-02-15T01:18:44.190Z,7.87
2023-02-15T01:21:11.830Z,5.90
2023-02-15T01:23:38.284Z,6.60
2023-02-15T01:26:04.652Z,5.00
2023-02-15T01:28:31.654Z,7.70
2023-02-15T01:30:58.044Z,16.93
2023-02-15T01:33:24.437Z,11.00
2023-02-15T01:35:56.480Z,7.07
2023-02-15T01:38:22.857Z,9.23
2023-02-15T01:40:51.596Z,7.40
2023-02-15T01:43:17.902Z,5.77
2023-02-15T01:45:47.280Z,7.47
2023-02-15T01:48:26.315Z,8.83
2023-02-15T01:50:55.542Z,6.03
2023-02-15T01:53:32.878Z,6.97
2023-02-15T01:56:01.799Z,5.87
2023-02-15T01:58:30.071Z,7.47
2023-02-15T02:00:59.104Z,5.10
2023-02-15T02:03:33.052Z,11.37
2023-02-15T02:05:59.482Z,11.67
2023-02-15T02:08:26.025Z,6.03
2023-02-15T02:10:52.408Z,6.27
2023-02-15T02:13:18.768Z,5.63
2023-02-15T02:15:53.359Z,12.20
2023-02-15T02:18:32.874Z,7.55
2023-02-15T02:21:11.994Z,7.57
2023-02-15T02:23:38.285Z,9.37
2023-02-15T02:26:18.578Z,5.73
2023-02-15T02:29:05.052Z,7.83
2023-02-15T02:31:49.610Z,10.40
2023-02-15T02:34:15.986Z,7.15
2023-02-15T02:36:42.295Z,4.80
2023-02-15T02:39:27.496Z,9.40
2023-02-15T02:42:03.822Z,10.85
2023-02-15T02:44:40.575Z,8.27
2023-02-15T02:47:10.022Z,7.83
2023-02-15T02:49:40.814Z,6.40
2023-02-15T02:52:27.128Z,7.03
2023-02-15T02:54:54.401Z,6.93
2023-02-15T02:57:23.466Z,7.03
2023-02-15T02:59:50.789Z,7.97
2023-02-15T03:02:23.044Z,5.37
2023-02-15T03:04:59.305Z,4.77
2023-02-15T03:07:28.903Z,5.67
2023-02-15T03:09:57.212Z,5.17
2023-02-15T03:12:43.755Z,5.93
2023-02-15T03:15:19.797Z,6.03
2023-02-15T03:17:48.310Z,6.87
2023-02-15T03:20:41.059Z,4.87
2023-02-15T03:23:10.975Z,8.50
2023-02-15T03:25:40.329Z,9.43
2023-02-15T03:28:08.897Z,3.93
2023-02-15T03:30:36.129Z,3.77
2023-02-15T03:33:03.948Z,6.37
2023-02-15T03:35:34.609Z,9.10
2023-02-15T03:38:02.454Z,7.07
2023-02-15T03:40:53.630Z,3.63
2023-02-15T03:43:22.794Z,4.57
2023-02-15T03:45:57.850Z,5.60
2023-02-15T03:51:10.156Z,5.10
2023-02-15T03:53:36.877Z,9.50
2023-02-15T03:56:03.566Z,6.80
2023-02-15T03:58:48.745Z,6.30
2023-02-15T04:01:39.960Z,9.32
2023-02-15T04:04:11.593Z,7.40
2023-02-15T04:06:37.921Z,4.23
2023-02-15T04:09:22.684Z,6.37
2023-02-15T04:11:49.036Z,5.88
2023-02-15T04:14:33.899Z,7.47
2023-02-15T04:17:00.210Z,9.95
2023-02-15T04:19:45.042Z,7.47
2023-02-15T04:22:30.243Z,5.47
2023-02-15T04:25:14.870Z,5.18
2023-02-15T04:27:48.725Z,5.85
2023-02-15T04:30:16.079Z,6.00
2023-02-15T04:32:42.749Z,5.57
2023-02-15T04:35:09.303Z,6.67
2023-02-15T04:37:35.841Z,4.43
2023-02-15T04:40:02.957Z,7.33
2023-02-15T04:42:29.488Z,7.13
2023-02-15T04:44:55.847Z,6.50
2023-02-15T04:47:22.350Z,6.40
2023-02-15T04:49:48.749Z,8.00
2023-02-15T04:52:15.149Z,7.50
2023-02-15T04:54:41.537Z,5.83
2023-02-15T04:57:07.956Z,13.83
2023-02-15T04:59:34.299Z,5.77
2023-02-15T05:02:00.658Z,8.63
2023-02-15T05:04:27.027Z,10.97
2023-02-15T05:06:53.490Z,5.73
2023-02-15T05:09:19.918Z,5.33
2023-02-15T05:11:46.388Z,8.33
2023-02-15T05:14:13.107Z,8.40
2023-02-15T05:16:39.893Z,8.50
2023-02-15T05:19:06.235Z,6.53
2023-02-15T05:21:33.285Z,13.37
2023-02-15T05:23:59.580Z,3.93
2023-02-15T05:26:44.396Z,6.90
2023-02-15T05:29:11.261Z,6.80
2023-02-15T05:31:37.877Z,6.50
2023-02-15T05:34:04.418Z,3.90
2023-02-15T05:36:30.765Z,5.10
2023-02-15T05:38:57.056Z,6.37
2023-02-15T05:41:23.356Z,6.30
2023-02-15T05:43:49.664Z,7.60
2023-02-15T05:46:16.018Z,5.73
2023-02-15T05:48:42.333Z,5.17
2023-02-15T05:51:10.149Z,5.37
2023-02-15T05:53:38.675Z,6.17
2023-02-15T05:56:05.812Z,4.80
2023-02-15T05:58:33.436Z,6.13
2023-02-15T06:00:59.856Z,4.77
2023-02-15T06:03:26.884Z,6.17
2023-02-15T06:05:53.520Z,7.57
2023-02-15T06:08:19.898Z,6.07
2023-02-15T06:10:46.497Z,14.17
2023-02-15T06:13:12.825Z,13.57
2023-02-15T06:15:39.157Z,9.30
2023-02-15T06:18:05.509Z,16.83
2023-02-15T06:20:31.839Z,17.50
2023-02-15T06:22:58.252Z,13.57
2023-02-15T06:25:25.533Z,13.43
2023-02-15T06:27:51.831Z,10.40
2023-02-15T06:30:18.277Z,10.83
2023-02-15T06:32:44.662Z,15.20
2023-02-15T06:35:10.973Z,12.40
2023-02-15T06:37:37.295Z,11.20
2023-02-15T06:40:05.012Z,9.07
2023-02-15T06:42:31.503Z,11.87
2023-02-15T06:44:58.167Z,16.60
2023-02-15T06:47:24.478Z,13.20
2023-02-15T06:49:50.822Z,14.17
2023-02-15T06:52:17.130Z,16.60
2023-02-15T06:54:43.484Z,12.60
2023-02-15T06:57:10.593Z,16.23
2023-02-15T06:59:37.033Z,11.80
2023-02-15T07:02:03.359Z,14.50
2023-02-15T07:04:30.948Z,13.23
2023-02-15T07:06:57.306Z,20.40
2023-02-15T07:09:23.723Z,9.13
2023-02-15T07:12:08.575Z,20.77
2023-02-15T07:14:35.093Z,19.70
2023-02-15T07:17:01.385Z,15.60
2023-02-15T07:19:27.716Z,16.20
2023-02-15T07:21:54.014Z,15.00
2023-02-15T07:24:20.337Z,11.70
2023-02-15T07:26:46.653Z,13.73
2023-02-15T07:29:12.948Z,20.07
2023-02-15T07:31:39.258Z,22.90
2023-02-15T07:34:06.912Z,21.77
2023-02-15T07:36:33.213Z,23.70
2023-02-15T07:38:59.525Z,27.07
2023-02-15T07:41:25.838Z,22.03
2023-02-15T07:43:52.237Z,25.17
2023-02-15T07:46:18.934Z,24.97
2023-02-15T07:48:45.732Z,27.17
2023-02-15T07:51:12.383Z,17.73
2023-02-15T07:53:39.500Z,17.37
2023-02-15T07:56:11.535Z,28.83
2023-02-15T07:58:53.508Z,18.53
2023-02-15T08:01:21.711Z,19.27
2023-02-15T08:03:48.416Z,22.30
2023-02-15T08:06:15.036Z,22.83
2023-02-15T08:08:42.066Z,26.77
2023-02-15T08:11:26.503Z,24.17
2023-02-15T08:13:54.727Z,22.07
2023-02-15T08:16:27.728Z,28.77
2023-02-15T08:18:54.592Z,23.20
2023-02-15T08:21:23.780Z,23.40
2023-02-15T08:23:51.830Z,29.67
2023-02-15T08:26:18.656Z,29.10
2023-02-15T08:28:45.387Z,24.90
2023-02-15T08:31:12.602Z,27.13
2023-02-15T08:33:39.823Z,30.13
2023-02-15T08:36:06.942Z,29.33
2023-02-15T08:38:33.774Z,33.37
2023-02-15T08:41:13.502Z,28.33
2023-02-15T08:43:40.331Z,24.60
2023-02-15T08:46:07.146Z,26.97
2023-02-15T08:48:33.719Z,26.30
2023-02-15T08:51:05.993Z,31.83
2023-02-15T08:53:32.336Z,37.83
2023-02-15T08:55:59.261Z,33.70
2023-02-15T08:58:26.157Z,38.60
2023-02-15T09:00:52.607Z,32.63
2023-02-15T09:03:18.995Z,35.10
2023-02-15T09:05:45.409Z,32.40
2023-02-15T09:08:11.745Z,36.27
2023-02-15T09:10:38.073Z,32.67
2023-02-15T09:13:04.578Z,31.37
2023-02-15T09:15:30.922Z,35.47
2023-02-15T09:17:57.271Z,32.60
2023-02-15T09:20:23.798Z,31.30
2023-02-15T09:22:52.858Z,36.60
2023-02-15T09:25:20.669Z,35.27
2023-02-15T09:27:46.953Z,42.27
2023-02-15T09:30:13.656Z,40.57
2023-02-15T09:32:40.206Z,37.37
2023-02-15T09:35:06.848Z,39.47
2023-02-15T09:37:33.200Z,49.47
2023-02-15T09:39:59.506Z,38.03
2023-02-15T09:42:33.742Z,42.50
2023-02-15T09:45:05.883Z,38.47
2023-02-15T09:47:34.987Z,38.27
2023-02-15T09:50:19.906Z,36.97
2023-02-15T09:52:55.020Z,35.05
2023-02-15T09:55:21.876Z,32.92
2023-02-15T09:57:59.172Z,39.60
2023-02-15T10:00:25.454Z,36.83
2023-02-15T10:03:06.815Z,37.50
2023-02-15T10:05:51.762Z,37.60
2023-02-15T10:08:32.903Z,28.38
2023-02-15T10:11:38.589Z,35.93
2023-02-15T10:14:12.231Z,35.08
2023-02-15T10:16:38.633Z,44.07
2023-02-15T10:19:04.947Z,39.83
2023-02-15T10:21:31.297Z,36.38
2023-02-15T10:24:20.259Z,36.20
2023-02-15T10:26:49.666Z,35.33
2023-02-15T10:29:37.066Z,32.20
2023-02-15T10:32:13.006Z,35.95
2023-02-15T10:34:40.583Z,32.55
2023-02-15T10:37:18.416Z,35.45
2023-02-15T10:40:17.467Z,35.60
2023-02-15T10:42:43.741Z,35.42
2023-02-15T10:45:16.166Z,34.73
2023-02-15T10:47:54.483Z,36.33
2023-02-15T10:50:36.057Z,31.08
2023-02-15T10:53:05.180Z,28.92
2023-02-15T10:55:49.762Z,34.28
2023-02-15T10:58:34.412Z,37.78
2023-02-15T11:01:05.624Z,41.50
2023-02-15T11:03:52.409Z,35.50
2023-02-15T11:06:20.524Z,32.35
2023-02-15T11:08:49.654Z,40.17
2023-02-15T11:11:20.767Z,39.13
2023-02-15T11:13:49.417Z,30.58
2023-02-15T11:16:19.001Z,33.55
2023-02-15T11:18:45.506Z,31.65
2023-02-15T11:21:18.754Z,36.40
2023-02-15T11:23:46.039Z,38.38
2023-02-15T11:26:18.253Z,32.83
2023-02-15T11:28:48.165Z,36.72
2023-02-15T11:31:19.432Z,37.95
2023-02-15T11:33:48.567Z,43.08
2023-02-15T11:36:18.635Z,33.45
2023-02-15T11:38:45.766Z,34.50
2023-02-15T11:41:20.091Z,36.60
2023-02-15T11:43:46.486Z,34.17
2023-02-15T11:46:13.930Z,28.80
2023-02-15T11:48:40.448Z,42.58
2023-02-15T11:51:06.813Z,29.98
2023-02-15T11:53:34.715Z,33.92
2023-02-15T11:56:01.513Z,42.65
2023-02-15T11:58:34.965Z,41.63
2023-02-15T12:01:10.492Z,36.60
2023-02-15T12:03:42.912Z,24.13
2023-02-15T12:06:17.156Z,36.90
2023-02-15T12:08:47.082Z,32.28
2023-02-15T12:11:18.501Z,39.20
2023-02-15T12:14:04.634Z,37.97
2023-02-15T12:16:33.465Z,34.85
2023-02-15T12:19:01.029Z,33.05
2023-02-15T12:21:30.636Z,35.40
2023-02-15T12:23:59.288Z,33.92
2023-02-15T12:26:29.999Z,35.35
2023-02-15T12:28:59.721Z,32.45
2023-02-15T12:31:28.297Z,35.58
2023-02-15T12:33:56.012Z,36.10
2023-02-15T12:36:24.611Z,44.15
2023-02-15T12:39:28.357Z,37.22
2023-02-15T12:41:54.636Z,37.63
2023-02-15T12:44:26.904Z,39.45
2023-02-15T12:46:59.268Z,31.63
2023-02-15T12:49:26.958Z,39.75
2023-02-15T12:51:54.695Z,39.88
2023-02-15T12:54:32.171Z,34.42
2023-02-15T12:56:59.505Z,34.17
2023-02-15T12:59:26.360Z,43.53
2023-02-15T13:01:54.710Z,34.80
2023-02-15T13:04:23.997Z,36.75
2023-02-15T13:06:52.667Z,31.90
2023-02-15T13:09:21.128Z,34.85
2023-02-15T13:11:47.721Z,31.48
2023-02-15T13:14:18.323Z,44.53
2023-02-15T13:16:45.649Z,38.92
2023-02-15T13:19:19.943Z,36.65
2023-02-15T13:21:48.205Z,34.33
2023-02-15T13:24:25.351Z,33.90
2023-02-15T13:26:52.986Z,38.65
2023-02-15T13:29:23.146Z,39.85
2023-02-15T13:31:51.273Z,31.95
2023-02-15T13:34:27.358Z,31.88
2023-02-15T13:37:14.485Z,41.65
2023-02-15T13:40:01.627Z,36.88
2023-02-15T13:42:31.686Z,35.88
2023-02-15T13:45:02.145Z,35.30
2023-02-15T13:47:40.874Z,34.28
2023-02-15T13:50:10.803Z,40.30
2023-02-15T13:52:59.191Z,36.85
2023-02-15T13:55:25.567Z,35.20
2023-02-15T13:58:04.064Z,35.15
2023-02-15T14:00:45.413Z,35.97
2023-02-15T14:03:14.601Z,38.80
2023-02-15T14:05:43.690Z,33.15
2023-02-15T14:08:11.064Z,41.25
2023-02-15T14:10:51.103Z,33.90
2023-02-15T14:13:36.161Z,31.38
2023-02-15T14:16:21.144Z,32.10
2023-02-15T14:18:50.187Z,35.22
2023-02-15T14:21:20.322Z,33.35
2023-02-15T14:23:50.129Z,36.47
2023-02-15T14:26:22.093Z,38.92
2023-02-15T14:29:03.542Z,37.97
2023-02-15T14:31:34.455Z,34.88
2023-02-15T14:34:01.047Z,39.95
2023-02-15T14:36:28.972Z,32.88
2023-02-15T14:39:06.511Z,36.97
2023-02-15T14:41:51.155Z,36.42
2023-02-15T14:44:43.660Z,33.33
2023-02-15T14:47:19.212Z,29.88
2023-02-15T14:49:45.619Z,31.08
2023-02-15T14:52:12.544Z,42.78
2023-02-15T14:54:38.859Z,35.03
2023-02-15T14:57:08.122Z,31.92
2023-02-15T14:59:59.544Z,36.33
2023-02-15T15:02:41.165Z,32.83
2023-02-15T15:05:09.241Z,32.92
2023-02-15T15:07:42.226Z,31.67
2023-02-15T15:10:17.394Z,37.10
2023-02-15T15:12:43.728Z,35.35
2023-02-15T15:15:14.723Z,31.25
2023-02-15T15:17:41.078Z,39.17
2023-02-15T15:20:12.462Z,42.88
2023-02-15T15:22:38.883Z,35.15
2023-02-15T15:25:09.967Z,31.33
2023-02-15T15:27:40.304Z,40.33
2023-02-15T15:30:16.016Z,40.15
2023-02-15T15:32:42.336Z,45.70
2023-02-15T15:35:11.486Z,35.80
2023-02-15T15:38:02.574Z,34.38
2023-02-15T15:40:41.493Z,35.15
2023-02-15T15:43:16.867Z,34.72
2023-02-15T15:45:56.663Z,38.95
2023-02-15T15:48:31.109Z,35.60
2023-02-15T15:50:58.763Z,34.20
2023-02-15T15:53:26.377Z,31.95
2023-02-15T15:55:55.833Z,34.10
2023-02-15T15:58:22.487Z,37.95
2023-02-15T16:01:09.585Z,41.65
2023-02-15T16:03:35.909Z,33.53
2023-02-15T16:06:02.800Z,33.80
2023-02-15T16:08:40.029Z,33.40
2023-02-15T16:11:15.326Z,40.03
2023-02-15T16:16:08.210Z,21.45
2023-02-15T16:18:39.712Z,34.45
2023-02-15T16:21:06.263Z,53.25
2023-02-15T16:23:52.838Z,44.35
2023-02-15T16:26:48.418Z,39.15
2023-02-15T16:29:16.328Z,37.55
2023-02-15T16:31:42.842Z,40.03
2023-02-15T16:34:18.873Z,31.40
2023-02-15T16:36:45.290Z,41.03
2023-02-15T16:39:19.091Z,42.22
2023-02-15T16:41:47.052Z,33.13
2023-02-15T16:44:20.466Z,35.33
2023-02-15T16:46:49.086Z,32.88
2023-02-15T16:49:20.197Z,42.25
2023-02-15T16:51:54.525Z,36.92
2023-02-15T16:54:22.336Z,37.97
2023-02-15T16:56:49.014Z,36.20
2023-02-15T16:59:27.734Z,30.95
2023-02-15T17:01:54.500Z,41.28
2023-02-15T17:04:23.671Z,34.20
2023-02-15T17:07:08.979Z,49.92
2023-02-15T17:09:35.507Z,42.80
2023-02-15T17:12:03.183Z,36.75
2023-02-15T17:14:30.506Z,21.58
2023-02-15T17:17:01.092Z,26.10
2023-02-15T17:19:29.120Z,20.48
2023-02-15T17:22:00.570Z,19.83
2023-02-15T17:24:34.702Z,23.20
2023-02-15T17:27:02.726Z,24.55
2023-02-15T17:29:31.791Z,23.10
2023-02-15T17:31:58.794Z,31.33
2023-02-15T17:34:54.327Z,27.00
2023-02-15T17:37:26.095Z,26.38
2023-02-15T17:39:52.477Z,38.50
2023-02-15T17:42:18.786Z,26.38
2023-02-15T17:44:45.102Z,25.17
2023-02-15T17:47:19.145Z,25.50
2023-02-15T17:49:45.756Z,29.77
2023-02-15T17:52:15.077Z,28.95
2023-02-15T17:55:00.170Z,33.03
2023-02-15T17:57:26.760Z,25.70
2023-02-15T18:00:11.952Z,26.35
2023-02-15T18:02:57.015Z,23.27
2023-02-15T18:05:42.177Z,28.83
2023-02-15T18:08:31.370Z,21.73
2023-02-15T18:11:16.113Z,25.30
2023-02-15T18:13:42.577Z,25.23
2023-02-15T18:16:13.250Z,19.80
2023-02-15T18:18:39.585Z,31.23
2023-02-15T18:21:11.991Z,23.53
2023-02-15T18:23:39.106Z,23.80
2023-02-15T18:26:05.769Z,20.30
2023-02-15T18:28:32.351Z,20.30
2023-02-15T18:30:59.337Z,24.30
2023-02-15T18:33:28.822Z,33.77
2023-02-15T18:35:55.117Z,21.03
2023-02-15T18:38:22.139Z,20.40
2023-02-15T18:40:50.235Z,24.23
2023-02-15T18:43:16.538Z,24.93
2023-02-15T18:45:42.911Z,28.83
2023-02-15T18:48:10.018Z,20.43
2023-02-15T18:50:37.518Z,26.73
2023-02-15T18:53:05.006Z,29.87
2023-02-15T18:55:35.370Z,25.77
2023-02-15T18:58:02.034Z,24.40
2023-02-15T19:00:29.851Z,20.97
2023-02-15T19:02:56.761Z,27.20
2023-02-15T19:05:23.237Z,29.20
2023-02-15T19:07:50.217Z,22.47
2023-02-15T19:10:18.333Z,29.53
2023-02-15T19:12:45.213Z,29.00
2023-02-15T19:15:16.370Z,28.17
2023-02-15T19:17:42.808Z,21.60
2023-02-15T19:20:15.269Z,23.60
2023-02-15T19:22:41.665Z,27.90
2023-02-15T19:25:08.302Z,30.53
2023-02-15T19:27:35.467Z,21.37
2023-02-15T19:30:03.403Z,27.93
2023-02-15T19:32:30.635Z,27.60
2023-02-15T19:34:57.218Z,26.73
2023-02-15T19:37:30.820Z,26.30
2023-02-15T19:39:57.214Z,21.80
2023-02-15T19:42:24.162Z,26.23
2023-02-15T19:44:51.397Z,25.40
2023-02-15T19:47:18.273Z,22.27
2023-02-15T19:49:44.576Z,27.87
2023-02-15T19:52:23.066Z,32.23
2023-02-15T19:54:49.761Z,27.70
2023-02-15T19:57:16.128Z,27.60
2023-02-15T19:59:42.458Z,19.50
2023-02-15T20:02:15.316Z,21.67
2023-02-15T20:04:41.706Z,31.87
2023-02-15T20:07:14.836Z,25.77
2023-02-15T20:09:41.497Z,25.37
2023-02-15T20:12:34.414Z,30.27
2023-02-15T20:15:00.759Z,29.67
2023-02-15T20:17:27.156Z,22.53
2023-02-15T20:19:53.598Z,23.43
2023-02-15T20:22:24.591Z,27.70
2023-02-15T20:24:51.301Z,26.10
2023-02-15T20:27:18.770Z,39.93
2023-02-15T20:29:45.129Z,26.67
2023-02-15T20:32:11.695Z,33.57
2023-02-15T20:34:38.458Z,35.30
2023-02-15T20:37:05.166Z,29.27
2023-02-15T20:39:32.732Z,23.20
2023-02-15T20:41:59.187Z,34.73
2023-02-15T20:44:26.429Z,25.13
2023-02-15T20:46:57.164Z,31.87
2023-02-15T20:49:24.247Z,27.83
2023-02-15T20:51:51.339Z,26.50
2023-02-15T20:54:18.993Z,34.80
2023-02-15T20:56:45.995Z,28.77
2023-02-15T20:59:26.161Z,29.90
2023-02-15T21:01:55.217Z,33.70
2023-02-15T21:04:28.500Z,30.00
2023-02-15T21:06:55.273Z,26.60
2023-02-15T21:09:21.584Z,33.20
2023-02-15T21:11:48.681Z,28.67
2023-02-15T21:14:18.760Z,31.37
2023-02-15T21:16:46.000Z,19.83
2023-02-15T21:19:13.617Z,29.30
2023-02-15T21:21:40.194Z,31.37
2023-02-15T21:24:07.057Z,40.77
2023-02-15T21:26:33.417Z,29.93
2023-02-15T21:29:00.037Z,27.63
2023-02-15T21:31:27.100Z,30.43
2023-02-15T21:33:53.582Z,35.53
2023-02-15T21:36:21.675Z,30.83
2023-02-15T21:38:48.600Z,32.70
2023-02-15T21:41:37.437Z,36.67
2023-02-15T21:44:33.238Z,35.23
2023-02-15T21:47:18.262Z,29.63
2023-02-15T21:49:44.825Z,34.15
2023-02-15T21:52:17.242Z,36.43
2023-02-15T21:54:43.803Z,31.43
2023-02-15T21:57:13.946Z,33.53
2023-02-15T21:59:42.383Z,25.33
2023-02-15T22:02:25.294Z,33.97
2023-02-15T22:04:51.650Z,35.27
2023-02-15T22:07:18.809Z,30.93
2023-02-15T22:09:45.187Z,30.97
2023-02-15T22:12:16.016Z,34.53
2023-02-15T22:14:42.968Z,31.93
2023-02-15T22:17:19.670Z,38.60
2023-02-15T22:19:46.565Z,24.60
2023-02-15T22:22:13.034Z,24.27
2023-02-15T22:24:39.457Z,32.53
2023-02-15T22:27:06.493Z,34.50
2023-02-15T22:29:33.676Z,24.13
2023-02-15T22:32:00.037Z,31.70
2023-02-15T22:34:27.775Z,29.13
2023-02-15T22:36:54.748Z,33.50
2023-02-15T22:39:22.570Z,31.60
2023-02-15T22:41:49.122Z,38.50
2023-02-15T22:44:22.479Z,26.93
2023-02-15T22:46:49.028Z,30.90
2023-02-15T22:49:15.489Z,30.20
2023-02-15T22:51:41.827Z,28.80
2023-02-15T22:54:08.249Z,23.80
2023-02-15T22:56:42.817Z,33.93
2023-02-15T22:59:16.461Z,36.25
2023-02-15T23:01:42.938Z,24.77
2023-02-15T23:04:15.012Z,28.47
2023-02-15T23:06:41.340Z,40.70
2023-02-15T23:09:08.737Z,27.40
2023-02-15T23:11:35.037Z,30.43
2023-02-15T23:14:03.085Z,29.33
2023-02-15T23:16:29.404Z,33.60
2023-02-15T23:18:55.720Z,29.50
2023-02-15T23:21:26.710Z,28.50
2023-02-15T23:23:54.827Z,30.37
2023-02-15T23:26:25.973Z,26.50
2023-02-15T23:28:52.633Z,29.57
2023-02-15T23:31:19.244Z,27.37
2023-02-15T23:33:46.203Z,28.70
2023-02-15T23:36:27.615Z,35.73
2023-02-15T23:38:54.845Z,29.13
2023-02-15T23:41:23.256Z,29.57
2023-02-15T23:43:51.999Z,29.03
2023-02-15T23:46:21.971Z,25.07
2023-02-15T23:48:48.388Z,25.57
2023-02-15T23:51:14.822Z,32.73
2023-02-15T23:53:41.132Z,27.80
2023-02-15T23:56:11.103Z,40.33
2023-02-15T23:58:38.820Z,25.00
